sensor_id;sensor_type;location;lat;lon;timestamp;temperature;humidity
46652;DHT22;32377;52.182;5.398;2023-10-31T00:01:49;10.60;99.90
46652;DHT22;32377;52.182;5.398;2023-10-31T00:04:15;10.40;99.90
46652;DHT22;32377;52.182;5.398;2023-10-31T00:06:41;10.40;99.90
46652;DHT22;32377;52.182;5.398;2023-10-31T00:09:07;10.50;99.90
46652;DHT22;32377;52.182;5.398;2023-10-31T00:11:32;10.20;99.90
46652;DHT22;32377;52.182;5.398;2023-10-31T00:13:58;10.40;99.90
46652;DHT22;32377;52.182;5.398;2023-10-31T00:16:23;10.20;99.90
46652;DHT22;32377;52.182;5.398;2023-10-31T00:18:49;10.20;99.90
46652;DHT22;32377;52.182;5.398;2023-10-31T00:21:15;10.60;99.90
46652;DHT22;32377;52.182;5.398;2023-10-31T00:23:45;10.50;99.90
46652;DHT22;32377;52.182;5.398;2023-10-31T00:26:10;10.20;99.90
46652;DHT22;32377;52.182;5.398;2023-10-31T00:28:36;10.20;99.90
46652;DHT22;32377;52.182;5.398;2023-10-31T00:31:02;10.60;99.90
46652;DHT22;32377;52.182;5.398;2023-10-31T00:33:29;10.60;99.90
46652;DHT22;32377;52.182;5.398;2023-10-31T00:35:55;10.60;99.90
46652;DHT22;32377;52.182;5.398;2023-10-31T00:38:20;10.50;99.90
46652;DHT22;32377;52.182;5.398;2023-10-31T00:40:46;10.30;99.90
46652;DHT22;32377;52.182;5.398;2023-10-31T00:43:11;10.30;99.90
46652;DHT22;32377;52.182;5.398;2023-10-31T00:45:37;10.40;99.90
46652;DHT22;32377;52.182;5.398;2023-10-31T00:48:03;10.30;99.90
46652;DHT22;32377;52.182;5.398;2023-10-31T00:50:28;10.70;99.90
46652;DHT22;32377;52.182;5.398;2023-10-31T00:52:54;10.30;99.90
46652;DHT22;32377;52.182;5.398;2023-10-31T00:55:20;10.40;99.90
46652;DHT22;32377;52.182;5.398;2023-10-31T00:57:45;10.30;99.90
46652;DHT22;32377;52.182;5.398;2023-10-31T01:00:11;10.30;99.90
46652;DHT22;32377;52.182;5.398;2023-10-31T01:02:37;10.50;99.90
46652;DHT22;32377;52.182;5.398;2023-10-31T01:05:02;10.20;99.90
46652;DHT22;32377;52.182;5.398;2023-10-31T01:07:28;10.70;99.90
46652;DHT22;32377;52.182;5.398;2023-10-31T01:09:54;10.30;99.90
46652;DHT22;32377;52.182;5.398;2023-10-31T01:12:19;10.50;99.90
46652;DHT22;32377;52.182;5.398;2023-10-31T01:14:45;10.70;99.90
46652;DHT22;32377;52.182;5.398;2023-10-31T01:17:10;10.40;99.90
46652;DHT22;32377;52.182;5.398;2023-10-31T01:19:36;10.30;99.90
46652;DHT22;32377;52.182;5.398;2023-10-31T01:22:01;10.70;99.90
46652;DHT22;32377;52.182;5.398;2023-10-31T01:24:27;10.80;99.90
46652;DHT22;32377;52.182;5.398;2023-10-31T01:26:53;10.70;99.90
46652;DHT22;32377;52.182;5.398;2023-10-31T01:29:18;10.70;99.90
46652;DHT22;32377;52.182;5.398;2023-10-31T01:31:44;10.50;99.90
46652;DHT22;32377;52.182;5.398;2023-10-31T01:34:10;10.50;99.90
46652;DHT22;32377;52.182;5.398;2023-10-31T01:36:35;10.40;99.90
46652;DHT22;32377;52.182;5.398;2023-10-31T01:39:01;10.40;99.90
46652;DHT22;32377;52.182;5.398;2023-10-31T01:41:27;10.40;99.90
46652;DHT22;32377;52.182;5.398;2023-10-31T01:43:52;10.50;99.90
46652;DHT22;32377;52.182;5.398;2023-10-31T01:46:18;10.80;99.90
46652;DHT22;32377;52.182;5.398;2023-10-31T01:48:44;10.50;99.90
46652;DHT22;32377;52.182;5.398;2023-10-31T01:51:09;10.90;99.90
46652;DHT22;32377;52.182;5.398;2023-10-31T01:53:36;10.60;99.90
46652;DHT22;32377;52.182;5.398;2023-10-31T01:56:03;10.70;99.90
46652;DHT22;32377;52.182;5.398;2023-10-31T01:58:31;10.50;99.90
46652;DHT22;32377;52.182;5.398;2023-10-31T02:00:59;10.50;99.90
46652;DHT22;32377;52.182;5.398;2023-10-31T02:03:25;11.00;99.90
46652;DHT22;32377;52.182;5.398;2023-10-31T02:05:51;10.50;99.90
46652;DHT22;32377;52.182;5.398;2023-10-31T02:08:17;10.90;99.90
46652;DHT22;32377;52.182;5.398;2023-10-31T02:10:43;10.70;99.90
46652;DHT22;32377;52.182;5.398;2023-10-31T02:13:12;10.50;99.90
46652;DHT22;32377;52.182;5.398;2023-10-31T02:15:38;10.50;99.90
46652;DHT22;32377;52.182;5.398;2023-10-31T02:18:04;11.00;99.90
46652;DHT22;32377;52.182;5.398;2023-10-31T02:20:29;10.70;99.90
46652;DHT22;32377;52.182;5.398;2023-10-31T02:22:55;11.00;99.90
46652;DHT22;32377;52.182;5.398;2023-10-31T02:25:21;11.10;99.90
46652;DHT22;32377;52.182;5.398;2023-10-31T02:27:46;10.70;99.90
46652;DHT22;32377;52.182;5.398;2023-10-31T02:30:12;11.00;99.90
46652;DHT22;32377;52.182;5.398;2023-10-31T02:32:38;10.60;99.90
46652;DHT22;32377;52.182;5.398;2023-10-31T02:35:04;10.70;99.90
46652;DHT22;32377;52.182;5.398;2023-10-31T02:37:29;10.50;99.90
46652;DHT22;32377;52.182;5.398;2023-10-31T02:39:55;11.10;99.90
46652;DHT22;32377;52.182;5.398;2023-10-31T02:42:20;10.50;99.90
46652;DHT22;32377;52.182;5.398;2023-10-31T02:44:46;10.70;99.90
46652;DHT22;32377;52.182;5.398;2023-10-31T02:47:12;11.20;99.90
46652;DHT22;32377;52.182;5.398;2023-10-31T02:49:37;10.90;99.90
46652;DHT22;32377;52.182;5.398;2023-10-31T02:52:03;10.80;99.90
46652;DHT22;32377;52.182;5.398;2023-10-31T02:54:29;11.20;99.90
46652;DHT22;32377;52.182;5.398;2023-10-31T02:56:54;10.80;99.90
46652;DHT22;32377;52.182;5.398;2023-10-31T02:59:20;10.50;99.90
46652;DHT22;32377;52.182;5.398;2023-10-31T03:01:45;11.20;99.90
46652;DHT22;32377;52.182;5.398;2023-10-31T03:04:11;11.10;99.90
46652;DHT22;32377;52.182;5.398;2023-10-31T03:06:37;10.50;99.90
46652;DHT22;32377;52.182;5.398;2023-10-31T03:09:02;10.70;99.90
46652;DHT22;32377;52.182;5.398;2023-10-31T03:11:28;11.20;99.90
46652;DHT22;32377;52.182;5.398;2023-10-31T03:13:53;10.60;99.90
46652;DHT22;32377;52.182;5.398;2023-10-31T03:16:19;10.90;99.90
46652;DHT22;32377;52.182;5.398;2023-10-31T03:18:46;10.50;99.90
46652;DHT22;32377;52.182;5.398;2023-10-31T03:21:12;11.20;99.90
46652;DHT22;32377;52.182;5.398;2023-10-31T03:23:37;11.10;99.90
46652;DHT22;32377;52.182;5.398;2023-10-31T03:26:03;11.20;99.90
46652;DHT22;32377;52.182;5.398;2023-10-31T03:28:29;11.20;99.90
46652;DHT22;32377;52.182;5.398;2023-10-31T03:30:54;11.00;99.90
46652;DHT22;32377;52.182;5.398;2023-10-31T03:33:20;10.60;99.90
46652;DHT22;32377;52.182;5.398;2023-10-31T03:35:46;11.10;99.90
46652;DHT22;32377;52.182;5.398;2023-10-31T03:38:11;11.10;99.90
46652;DHT22;32377;52.182;5.398;2023-10-31T03:40:37;10.70;99.90
46652;DHT22;32377;52.182;5.398;2023-10-31T03:43:03;10.40;99.90
46652;DHT22;32377;52.182;5.398;2023-10-31T03:45:29;10.50;99.90
46652;DHT22;32377;52.182;5.398;2023-10-31T03:47:54;10.50;99.90
46652;DHT22;32377;52.182;5.398;2023-10-31T03:50:20;10.80;99.90
46652;DHT22;32377;52.182;5.398;2023-10-31T03:52:45;10.90;99.90
46652;DHT22;32377;52.182;5.398;2023-10-31T03:55:11;10.50;99.90
46652;DHT22;32377;52.182;5.398;2023-10-31T03:57:37;10.60;99.90
46652;DHT22;32377;52.182;5.398;2023-10-31T04:00:03;11.30;99.90
46652;DHT22;32377;52.182;5.398;2023-10-31T04:02:30;10.70;99.90
46652;DHT22;32377;52.182;5.398;2023-10-31T04:04:55;11.30;99.90
46652;DHT22;32377;52.182;5.398;2023-10-31T04:07:21;10.90;99.90
46652;DHT22;32377;52.182;5.398;2023-10-31T04:09:46;10.90;99.90
46652;DHT22;32377;52.182;5.398;2023-10-31T04:12:12;10.60;99.90
46652;DHT22;32377;52.182;5.398;2023-10-31T04:14:38;10.60;99.90
46652;DHT22;32377;52.182;5.398;2023-10-31T04:17:04;11.10;99.90
46652;DHT22;32377;52.182;5.398;2023-10-31T04:19:30;10.50;99.90
46652;DHT22;32377;52.182;5.398;2023-10-31T04:21:55;11.20;99.90
46652;DHT22;32377;52.182;5.398;2023-10-31T04:24:21;11.00;99.90
46652;DHT22;32377;52.182;5.398;2023-10-31T04:26:46;10.60;99.90
46652;DHT22;32377;52.182;5.398;2023-10-31T04:29:12;10.80;99.90
46652;DHT22;32377;52.182;5.398;2023-10-31T04:31:39;10.90;99.90
46652;DHT22;32377;52.182;5.398;2023-10-31T04:34:04;11.20;99.90
46652;DHT22;32377;52.182;5.398;2023-10-31T04:36:30;11.10;99.90
46652;DHT22;32377;52.182;5.398;2023-10-31T04:38:55;10.30;99.90
46652;DHT22;32377;52.182;5.398;2023-10-31T04:41:21;10.90;99.90
46652;DHT22;32377;52.182;5.398;2023-10-31T04:43:47;10.80;99.90
46652;DHT22;32377;52.182;5.398;2023-10-31T04:46:12;10.50;99.90
46652;DHT22;32377;52.182;5.398;2023-10-31T04:48:38;10.80;99.90
46652;DHT22;32377;52.182;5.398;2023-10-31T04:51:03;10.50;99.90
46652;DHT22;32377;52.182;5.398;2023-10-31T04:53:29;10.30;99.90
46652;DHT22;32377;52.182;5.398;2023-10-31T04:55:55;10.20;99.90
46652;DHT22;32377;52.182;5.398;2023-10-31T04:58:21;11.00;99.90
46652;DHT22;32377;52.182;5.398;2023-10-31T05:00:47;10.40;99.90
46652;DHT22;32377;52.182;5.398;2023-10-31T05:03:12;10.80;99.90
46652;DHT22;32377;52.182;5.398;2023-10-31T05:05:38;10.20;99.90
46652;DHT22;32377;52.182;5.398;2023-10-31T05:08:03;10.20;99.90
46652;DHT22;32377;52.182;5.398;2023-10-31T05:10:29;10.60;99.90
46652;DHT22;32377;52.182;5.398;2023-10-31T05:12:55;10.80;99.90
46652;DHT22;32377;52.182;5.398;2023-10-31T22:58:31;11.40;99.90
46652;DHT22;32377;52.182;5.398;2023-10-31T23:00:57;11.30;99.90
46652;DHT22;32377;52.182;5.398;2023-10-31T23:03:23;11.50;99.90
46652;DHT22;32377;52.182;5.398;2023-10-31T23:05:48;11.50;99.90
46652;DHT22;32377;52.182;5.398;2023-10-31T23:08:14;11.60;99.90
46652;DHT22;32377;52.182;5.398;2023-10-31T23:10:39;11.60;99.90
46652;DHT22;32377;52.182;5.398;2023-10-31T23:13:06;11.70;99.90
46652;DHT22;32377;52.182;5.398;2023-10-31T23:15:31;11.60;99.90
46652;DHT22;32377;52.182;5.398;2023-10-31T23:17:58;11.70;99.90
46652;DHT22;32377;52.182;5.398;2023-10-31T23:20:23;11.20;99.90
46652;DHT22;32377;52.182;5.398;2023-10-31T23:22:49;11.30;99.90
46652;DHT22;32377;52.182;5.398;2023-10-31T23:25:17;11.20;99.90
46652;DHT22;32377;52.182;5.398;2023-10-31T23:27:43;11.20;99.90
46652;DHT22;32377;52.182;5.398;2023-10-31T23:30:09;11.20;99.90
46652;DHT22;32377;52.182;5.398;2023-10-31T23:32:35;11.10;99.90
46652;DHT22;32377;52.182;5.398;2023-10-31T23:35:01;11.20;99.90
46652;DHT22;32377;52.182;5.398;2023-10-31T23:37:27;11.60;99.90
46652;DHT22;32377;52.182;5.398;2023-10-31T23:39:52;11.60;99.90
46652;DHT22;32377;52.182;5.398;2023-10-31T23:42:18;11.30;99.90
46652;DHT22;32377;52.182;5.398;2023-10-31T23:44:43;11.20;99.90
46652;DHT22;32377;52.182;5.398;2023-10-31T23:47:09;11.50;99.90
46652;DHT22;32377;52.182;5.398;2023-10-31T23:49:34;11.60;99.90
46652;DHT22;32377;52.182;5.398;2023-10-31T23:52:00;11.60;99.90
46652;DHT22;32377;52.182;5.398;2023-10-31T23:54:26;11.30;99.90
46652;DHT22;32377;52.182;5.398;2023-10-31T23:56:51;11.60;99.90
46652;DHT22;32377;52.182;5.398;2023-10-31T23:59:17;11.20;99.90
